createdAt,value
2023-08-03T00:00:04.287Z,96133.44
2023-08-03T00:00:16.040Z,96151.44
2023-08-03T00:00:27.711Z,96144.50
2023-08-03T00:00:39.521Z,96136.75
2023-08-03T00:00:51.319Z,96133.59
2023-08-03T00:01:03.963Z,96132.50
2023-08-03T00:01:15.759Z,96165.81
2023-08-03T00:01:27.720Z,96162.34
2023-08-03T00:01:39.518Z,96142.00
2023-08-03T00:01:54.256Z,96146.22
2023-08-03T00:02:06.208Z,96150.03
2023-08-03T00:02:18.111Z,96150.03
2023-08-03T00:02:34.974Z,96137.41
2023-08-03T00:02:47.442Z,96145.13
2023-08-03T00:03:00.561Z,96137.88
2023-08-03T00:03:12.931Z,96144.81
2023-08-03T00:03:25.018Z,96134.88
2023-08-03T00:03:37.150Z,96134.53
2023-08-03T00:03:49.402Z,96137.38
2023-08-03T00:04:02.090Z,96142.75
2023-08-03T00:04:14.306Z,96129.78
2023-08-03T00:04:26.386Z,96127.25
2023-08-03T00:04:38.773Z,96127.72
2023-08-03T00:04:50.438Z,96139.25
2023-08-03T00:05:03.042Z,96132.00
2023-08-03T00:05:18.343Z,96129.31
2023-08-03T00:05:30.043Z,96138.78
2023-08-03T00:05:41.838Z,96142.56
2023-08-03T00:05:55.024Z,96138.00
2023-08-03T00:06:06.854Z,96146.03
2023-08-03T00:06:18.868Z,96149.84
2023-08-03T00:06:30.611Z,96149.06
2023-08-03T00:06:42.602Z,96131.06
2023-08-03T00:06:54.635Z,96137.53
2023-08-03T00:07:07.550Z,96142.75
2023-08-03T00:07:19.437Z,96141.16
2023-08-03T00:07:32.314Z,96129.63
2023-08-03T00:07:44.420Z,96129.97
2023-08-03T00:07:56.174Z,96128.41
2023-08-03T00:08:07.979Z,96118.78
2023-08-03T00:08:19.714Z,96133.28
2023-08-03T00:08:31.421Z,96126.34
2023-08-03T00:08:44.098Z,96123.66
2023-08-03T00:08:55.962Z,96136.28
2023-08-03T00:09:07.707Z,96139.31
2023-08-03T00:09:19.730Z,96138.50
2023-08-03T00:09:31.412Z,96137.72
2023-08-03T00:09:44.557Z,96133.16
2023-08-03T00:09:56.394Z,96135.03
2023-08-03T00:10:08.781Z,96132.34
2023-08-03T00:10:21.544Z,96129.66
2023-08-03T00:10:33.962Z,96134.72
2023-08-03T00:10:46.672Z,96137.09
2023-08-03T00:10:58.304Z,96130.59
2023-08-03T00:11:09.991Z,96138.34
2023-08-03T00:11:21.787Z,96129.97
2023-08-03T00:11:33.498Z,96137.22
2023-08-03T00:11:45.487Z,96135.34
2023-08-03T00:11:57.360Z,96130.28
2023-08-03T00:12:09.478Z,96145.94
2023-08-03T00:12:23.225Z,96144.69
2023-08-03T00:12:34.919Z,96132.34
2023-08-03T00:12:47.169Z,96125.44
2023-08-03T00:12:58.931Z,96130.78
2023-08-03T00:13:11.021Z,96129.66
2023-08-03T00:13:22.933Z,96130.00
2023-08-03T00:13:34.911Z,96141.53
2023-08-03T00:13:46.613Z,96124.16
2023-08-03T00:13:58.426Z,96137.56
2023-08-03T00:14:10.080Z,96118.00
2023-08-03T00:14:23.113Z,96123.84
2023-08-03T00:14:34.950Z,96115.00
2023-08-03T00:14:46.743Z,96119.25
2023-08-03T00:14:58.568Z,96129.19
2023-08-03T00:15:10.943Z,96131.59
2023-08-03T00:15:22.639Z,96127.31
2023-08-03T00:15:34.342Z,96136.16
2023-08-03T00:15:47.377Z,96133.78
2023-08-03T00:15:59.788Z,96131.88
2023-08-03T00:16:11.646Z,96125.44
2023-08-03T00:16:23.577Z,96128.09
2023-08-03T00:16:35.557Z,96136.16
2023-08-03T00:16:47.458Z,96139.94
2023-08-03T00:16:59.124Z,96139.63
2023-08-03T00:17:11.418Z,96135.03
2023-08-03T00:17:23.412Z,96135.03
2023-08-03T00:17:36.282Z,96151.13
2023-08-03T00:17:48.103Z,96125.44
2023-08-03T00:17:59.964Z,96132.22
2023-08-03T00:18:11.758Z,96132.53
2023-08-03T00:18:23.453Z,96154.31
2023-08-03T00:18:35.186Z,96148.19
2023-08-03T00:18:46.928Z,96136.31
2023-08-03T00:18:58.676Z,96130.97
2023-08-03T00:19:10.848Z,96124.50
2023-08-03T00:19:22.503Z,96119.88
2023-08-03T00:19:34.406Z,96131.09
2023-08-03T00:19:46.062Z,96127.63
2023-08-03T00:19:59.516Z,96120.34
2023-08-03T00:20:11.718Z,96117.22
2023-08-03T00:20:23.811Z,96119.59
2023-08-03T00:20:35.511Z,96124.97
2023-08-03T00:20:49.113Z,96133.00
2023-08-03T00:21:03.578Z,96140.72
2023-08-03T00:21:15.283Z,96126.06
2023-08-03T00:21:26.943Z,96139.94
2023-08-03T00:21:39.052Z,96138.03
2023-08-03T00:21:51.821Z,96134.09
2023-08-03T00:22:03.608Z,96125.44
2023-08-03T00:22:15.473Z,96126.97
2023-08-03T00:22:27.470Z,96123.53
2023-08-03T00:22:39.131Z,96123.22
2023-08-03T00:22:50.938Z,96123.22
2023-08-03T00:23:02.775Z,96125.56
2023-08-03T00:23:14.891Z,96131.72
2023-08-03T00:23:27.893Z,96137.09
2023-08-03T00:23:39.646Z,96131.25
2023-08-03T00:23:51.636Z,96129.66
2023-08-03T00:24:03.970Z,96132.06
2023-08-03T00:24:15.677Z,96135.50
2023-08-03T00:24:27.635Z,96135.50
2023-08-03T00:24:39.319Z,96139.78
2023-08-03T00:24:51.246Z,96138.97
2023-08-03T00:25:05.113Z,96140.88
2023-08-03T00:25:16.978Z,96142.00
2023-08-03T00:25:31.987Z,96126.69
2023-08-03T00:25:43.915Z,96135.97
2023-08-03T00:25:55.572Z,96130.59
2023-08-03T00:26:07.327Z,96139.44
2023-08-03T00:26:19.195Z,96138.66
2023-08-03T00:26:31.414Z,96127.91
2023-08-03T00:26:43.290Z,96120.34
2023-08-03T00:26:54.947Z,96133.44
2023-08-03T00:27:07.125Z,96149.88
2023-08-03T00:27:18.991Z,96129.50
2023-08-03T00:27:31.819Z,96137.88
2023-08-03T00:27:43.491Z,96143.56
2023-08-03T00:27:55.257Z,96148.91
2023-08-03T00:28:07.035Z,96146.22
2023-08-03T00:28:21.698Z,96145.47
2023-08-03T00:28:33.471Z,96148.44
2023-08-03T00:28:45.105Z,96131.88
2023-08-03T00:28:56.979Z,96123.38
2023-08-03T00:29:08.984Z,96131.41
2023-08-03T00:29:20.638Z,96136.16
2023-08-03T00:29:33.299Z,96142.00
2023-08-03T00:29:45.028Z,96137.09
2023-08-03T00:29:57.182Z,96131.72
2023-08-03T00:30:09.286Z,96129.03
2023-08-03T00:30:21.084Z,96150.19
2023-08-03T00:30:33.315Z,96135.97
2023-08-03T00:30:45.126Z,96125.56
2023-08-03T00:30:57.926Z,96124.75
2023-08-03T00:31:09.666Z,96144.34
2023-08-03T00:31:21.667Z,96135.97
2023-08-03T00:31:33.597Z,96150.97
2023-08-03T00:31:45.517Z,96160.13
2023-08-03T00:31:57.515Z,96142.78
2023-08-03T00:32:09.221Z,96137.72
2023-08-03T00:32:21.224Z,96144.69
2023-08-03T00:32:33.097Z,96166.78
2023-08-03T00:32:45.843Z,96152.09
2023-08-03T00:32:57.631Z,96134.75
2023-08-03T00:33:09.590Z,96134.75
2023-08-03T00:33:21.309Z,96132.06
2023-08-03T00:33:33.254Z,96130.16
2023-08-03T00:33:45.360Z,96133.97
2023-08-03T00:33:57.137Z,96150.84
2023-08-03T00:34:08.971Z,96142.47
2023-08-03T00:34:20.662Z,96140.59
2023-08-03T00:34:33.613Z,96136.31
2023-08-03T00:34:45.308Z,96138.22
2023-08-03T00:34:57.182Z,96164.28
2023-08-03T00:35:09.479Z,96173.41
2023-08-03T00:35:21.235Z,96141.84
2023-08-03T00:35:32.978Z,96153.38
2023-08-03T00:35:44.680Z,96137.28
2023-08-03T00:35:57.304Z,96145.00
2023-08-03T00:36:11.493Z,96147.69
2023-08-03T00:36:23.165Z,96143.91
2023-08-03T00:36:34.847Z,96163.78
2023-08-03T00:36:46.540Z,96154.97
2023-08-03T00:36:58.399Z,96154.97
2023-08-03T00:37:11.348Z,96151.94
2023-08-03T00:37:23.114Z,96150.84
2023-08-03T00:37:34.893Z,96154.31
2023-08-03T00:37:46.594Z,96148.19
2023-08-03T00:37:59.231Z,96146.25
2023-08-03T00:38:10.892Z,96147.06
2023-08-03T00:38:23.869Z,96149.41
2023-08-03T00:38:35.638Z,96149.56
2023-08-03T00:38:47.554Z,96145.00
2023-08-03T00:38:59.302Z,96145.78
2023-08-03T00:39:11.512Z,96161.56
2023-08-03T00:39:23.347Z,96149.72
2023-08-03T00:39:35.142Z,96145.47
2023-08-03T00:39:46.943Z,96151.59
2023-08-03T00:39:59.645Z,96155.06
2023-08-03T00:40:11.917Z,96149.25
2023-08-03T00:40:23.848Z,96145.31
2023-08-03T00:40:35.774Z,96143.09
2023-08-03T00:40:48.010Z,96152.25
2023-08-03T00:40:59.886Z,96143.41
2023-08-03T00:41:11.566Z,96143.09
2023-08-03T00:41:23.593Z,96139.31
2023-08-03T00:41:35.547Z,96139.63
2023-08-03T00:41:48.165Z,96140.72
2023-08-03T00:42:00.021Z,96142.31
2023-08-03T00:42:11.863Z,96140.41
2023-08-03T00:42:23.686Z,96125.44
2023-08-03T00:42:35.412Z,96126.22
2023-08-03T00:42:47.105Z,96133.94
2023-08-03T00:42:58.993Z,96144.69
2023-08-03T00:43:11.953Z,96139.31
2023-08-03T00:43:23.890Z,96134.72
2023-08-03T00:43:35.657Z,96124.31
2023-08-03T00:43:47.359Z,96140.41
2023-08-03T00:43:59.062Z,96136.63
2023-08-03T00:44:10.762Z,96125.44
2023-08-03T00:44:22.697Z,96126.50
2023-08-03T00:44:34.867Z,96132.22
2023-08-03T00:44:46.541Z,96132.53
2023-08-03T00:44:58.432Z,96134.44
2023-08-03T00:45:12.535Z,96138.22
2023-08-03T00:45:24.484Z,96154.00
2023-08-03T00:45:36.593Z,96142.94
2023-08-03T00:45:48.268Z,96135.69
2023-08-03T00:46:00.140Z,96124.97
2023-08-03T00:46:11.817Z,96138.03
2023-08-03T00:46:23.823Z,96131.59
2023-08-03T00:46:35.852Z,96126.97
2023-08-03T00:46:47.696Z,96139.31
2023-08-03T00:46:59.647Z,96141.19
2023-08-03T00:47:12.858Z,96126.97
2023-08-03T00:47:24.779Z,96150.66
2023-08-03T00:47:36.697Z,96145.31
2023-08-03T00:47:49.019Z,96140.59
2023-08-03T00:48:01.128Z,96139.78
2023-08-03T00:48:13.041Z,96126.38
2023-08-03T00:48:25.267Z,96130.50
2023-08-03T00:48:37.195Z,96125.13
2023-08-03T00:48:48.878Z,96132.25
2023-08-03T00:49:02.894Z,96142.66
2023-08-03T00:49:14.819Z,96139.97
2023-08-03T00:49:29.044Z,96136.19
2023-08-03T00:49:40.814Z,96120.09
2023-08-03T00:49:52.595Z,96134.25
2023-08-03T00:50:05.152Z,96142.00
2023-08-03T00:50:16.912Z,96141.22
2023-08-03T00:50:28.743Z,96134.44
2023-08-03T00:50:41.676Z,96148.63
2023-08-03T00:50:53.858Z,96151.31
2023-08-03T00:51:05.732Z,96135.22
2023-08-03T00:51:18.840Z,96126.06
2023-08-03T00:51:30.674Z,96131.09
2023-08-03T00:51:45.534Z,96125.72
2023-08-03T00:51:57.876Z,96127.63
2023-08-03T00:52:09.750Z,96138.03
2023-08-03T00:52:21.437Z,96138.84
2023-08-03T00:52:34.794Z,96128.09
2023-08-03T00:52:46.602Z,96132.69
2023-08-03T00:52:59.387Z,96124.97
2023-08-03T00:53:11.074Z,96126.84
2023-08-03T00:53:23.108Z,96124.97
2023-08-03T00:53:34.810Z,96120.06
2023-08-03T00:53:47.253Z,96122.75
2023-08-03T00:53:59.189Z,96136.16
2023-08-03T00:54:11.871Z,96130.78
2023-08-03T00:54:23.918Z,96123.03
2023-08-03T00:54:37.388Z,96143.75
2023-08-03T00:54:49.168Z,96129.84
2023-08-03T00:55:00.840Z,96130.63
2023-08-03T00:55:12.700Z,96141.69
2023-08-03T00:55:24.353Z,96134.44
2023-08-03T00:55:36.277Z,96148.31
2023-08-03T00:55:48.989Z,96139.13
2023-08-03T00:56:00.747Z,96134.44
2023-08-03T00:56:12.480Z,96139.00
2023-08-03T00:56:24.369Z,96130.97
2023-08-03T00:56:36.210Z,96128.28
2023-08-03T00:56:47.913Z,96132.53
2023-08-03T00:56:59.601Z,96133.00
2023-08-03T00:57:11.410Z,96141.06
2023-08-03T00:57:23.055Z,96137.56
2023-08-03T00:57:35.925Z,96139.78
2023-08-03T00:57:47.581Z,96141.34
2023-08-03T00:57:59.883Z,96134.09
2023-08-03T00:58:11.653Z,96139.47
2023-08-03T00:58:23.489Z,96135.69
2023-08-03T00:58:35.524Z,96128.41
2023-08-03T00:58:47.336Z,96137.25
2023-08-03T00:58:59.169Z,96141.53
2023-08-03T00:59:12.164Z,96137.72
2023-08-03T00:59:23.940Z,96137.72
2023-08-03T00:59:35.621Z,96137.72
2023-08-03T00:59:50.447Z,96133.16
2023-08-03T01:00:02.292Z,96137.41
2023-08-03T01:00:14.682Z,96138.97
2023-08-03T01:00:26.577Z,96131.25
2023-08-03T01:00:38.442Z,96135.50
2023-08-03T01:00:50.215Z,96137.09
2023-08-03T01:01:02.041Z,96146.69
2023-08-03T01:01:14.092Z,96150.84
2023-08-03T01:01:27.814Z,96138.50
2023-08-03T01:01:39.709Z,96142.31
2023-08-03T01:01:52.563Z,96146.91
2023-08-03T01:02:06.675Z,96147.19
2023-08-03T01:02:18.614Z,96142.16
2023-08-03T01:02:30.876Z,96140.25
2023-08-03T01:02:42.773Z,96142.16
2023-08-03T01:02:54.601Z,96144.84
2023-08-03T01:03:06.435Z,96139.94
2023-08-03T01:03:18.222Z,96137.25
2023-08-03T01:03:30.224Z,96138.84
2023-08-03T01:03:42.393Z,96136.16
2023-08-03T01:03:55.724Z,96157.63
2023-08-03T01:04:08.589Z,96140.72
2023-08-03T01:04:20.335Z,96151.47
2023-08-03T01:04:32.321Z,96161.41
2023-08-03T01:04:44.370Z,96131.09
2023-08-03T01:04:56.145Z,96143.09
2023-08-03T01:05:08.112Z,96147.69
2023-08-03T01:05:20.076Z,96149.56
2023-08-03T01:05:33.665Z,96153.81
2023-08-03T01:05:45.456Z,96144.69
2023-08-03T01:05:58.291Z,96142.78
2023-08-03T01:06:10.011Z,96151.59
2023-08-03T01:06:23.338Z,96153.97
2023-08-03T01:06:37.035Z,96144.00
2023-08-03T01:06:48.844Z,96146.69
2023-08-03T01:07:00.668Z,96144.81
2023-08-03T01:07:12.674Z,96138.34
2023-08-03T01:07:24.763Z,96135.34
2023-08-03T01:07:37.468Z,96139.91
2023-08-03T01:07:49.280Z,96149.88
2023-08-03T01:08:00.923Z,96149.22
2023-08-03T01:08:12.599Z,96140.69
2023-08-03T01:08:24.686Z,96145.28
2023-08-03T01:08:36.603Z,96147.19
2023-08-03T01:08:48.349Z,96139.91
2023-08-03T01:09:01.371Z,96150.34
2023-08-03T01:09:13.235Z,96170.22
2023-08-03T01:09:25.922Z,96154.13
2023-08-03T01:09:37.616Z,96153.50
2023-08-03T01:09:49.462Z,96169.59
2023-08-03T01:10:01.248Z,96151.91
2023-08-03T01:10:13.077Z,96137.69
2023-08-03T01:10:25.282Z,96119.69
2023-08-03T01:10:37.070Z,96141.97
2023-08-03T01:10:48.910Z,96142.75
2023-08-03T01:11:01.704Z,96130.44
2023-08-03T01:11:13.507Z,96144.50
2023-08-03T01:11:25.323Z,96139.44
2023-08-03T01:11:36.999Z,96138.66
2023-08-03T01:11:48.687Z,96152.41
2023-08-03T01:12:00.579Z,96137.41
2023-08-03T01:12:12.522Z,96143.88
2023-08-03T01:12:24.249Z,96146.56
2023-08-03T01:12:36.208Z,96144.22
2023-08-03T01:12:48.231Z,96139.63
2023-08-03T01:13:01.020Z,96141.19
2023-08-03T01:13:13.692Z,96141.19
2023-08-03T01:13:25.744Z,96144.69
2023-08-03T01:13:37.580Z,96149.72
2023-08-03T01:13:49.452Z,96160.13
2023-08-03T01:14:01.442Z,96158.56
2023-08-03T01:14:13.166Z,96144.00
2023-08-03T01:14:25.157Z,96129.03
2023-08-03T01:14:37.050Z,96151.13
2023-08-03T01:14:49.906Z,96148.78
2023-08-03T01:15:01.869Z,96161.41
2023-08-03T01:15:13.570Z,96161.41
2023-08-03T01:15:25.365Z,96145.31
2023-08-03T01:15:37.105Z,96149.88
2023-08-03T01:15:48.947Z,96151.00
2023-08-03T01:16:01.221Z,96153.69
2023-08-03T01:16:13.119Z,96168.66
2023-08-03T01:16:25.698Z,96176.41
2023-08-03T01:16:38.219Z,96176.09
2023-08-03T01:16:51.229Z,96154.94
2023-08-03T01:17:03.082Z,96164.75
2023-08-03T01:17:14.981Z,96164.41
2023-08-03T01:17:26.781Z,96154.47
2023-08-03T01:17:38.680Z,96178.16
2023-08-03T01:17:50.523Z,96156.69
2023-08-03T01:18:02.364Z,96150.19
2023-08-03T01:18:14.262Z,96142.16
2023-08-03T01:18:26.965Z,96149.88
2023-08-03T01:18:39.309Z,96163.00
2023-08-03T01:18:51.873Z,96146.09
2023-08-03T01:19:03.724Z,96167.25
2023-08-03T01:19:16.632Z,96174.53
2023-08-03T01:19:28.435Z,96153.81
2023-08-03T01:19:40.299Z,96230.09
2023-08-03T01:19:52.103Z,96158.41
2023-08-03T01:20:04.497Z,96171.03
2023-08-03T01:20:16.735Z,96180.19
2023-08-03T01:20:30.353Z,96167.56
2023-08-03T01:20:43.375Z,96167.56
2023-08-03T01:20:55.313Z,96173.72
2023-08-03T01:21:07.965Z,96174.81
2023-08-03T01:21:20.536Z,96144.84
2023-08-03T01:21:35.996Z,96150.66
2023-08-03T01:21:48.036Z,96173.56
2023-08-03T01:22:01.029Z,96165.84
2023-08-03T01:22:15.502Z,96175.00
2023-08-03T01:22:28.116Z,96157.31
2023-08-03T01:22:43.142Z,96161.88
2023-08-03T01:22:55.166Z,96180.38
2023-08-03T01:23:06.964Z,96177.69
2023-08-03T01:23:18.681Z,96179.59
2023-08-03T01:23:30.419Z,96161.09
2023-08-03T01:23:42.262Z,96197.56
2023-08-03T01:23:54.161Z,96166.16
2023-08-03T01:24:05.832Z,96158.91
2023-08-03T01:24:18.497Z,96145.50
2023-08-03T01:24:30.940Z,96151.94
2023-08-03T01:24:42.764Z,96158.91
2023-08-03T01:24:54.441Z,96158.91
2023-08-03T01:25:07.487Z,96154.31
2023-08-03T01:25:19.339Z,96158.59
2023-08-03T01:25:31.092Z,96167.25
2023-08-03T01:25:42.752Z,96162.34
2023-08-03T01:25:54.443Z,96155.91
2023-08-03T01:26:06.193Z,96162.06
2023-08-03T01:26:19.103Z,96167.09
2023-08-03T01:26:33.412Z,96169.78
2023-08-03T01:26:45.631Z,96157.16
2023-08-03T01:26:59.875Z,96156.03
2023-08-03T01:27:11.550Z,96155.25
2023-08-03T01:27:23.694Z,96157.16
2023-08-03T01:27:35.378Z,96157.91
2023-08-03T01:27:48.621Z,96154.16
2023-08-03T01:28:01.806Z,96156.84
2023-08-03T01:28:13.481Z,96159.50
2023-08-03T01:28:25.300Z,96177.97
2023-08-03T01:28:37.021Z,96174.53
2023-08-03T01:28:48.875Z,96160.78
2023-08-03T01:29:00.540Z,96156.97
2023-08-03T01:29:12.698Z,96171.19
2023-08-03T01:29:24.347Z,96163.13
2023-08-03T01:29:36.157Z,96163.94
2023-08-03T01:29:48.217Z,96162.81
2023-08-03T01:30:00.872Z,96164.38
2023-08-03T01:30:13.146Z,96162.50
2023-08-03T01:30:24.830Z,96168.16
2023-08-03T01:30:36.563Z,96157.44
2023-08-03T01:30:49.305Z,96157.44
2023-08-03T01:31:01.144Z,96160.13
2023-08-03T01:31:13.118Z,96163.94
2023-08-03T01:31:25.361Z,96153.53
2023-08-03T01:31:37.406Z,96161.72
2023-08-03T01:31:51.466Z,96167.53
2023-08-03T01:32:03.486Z,96177.47
2023-08-03T01:32:15.166Z,96182.84
2023-08-03T01:32:27.072Z,96183.50
2023-08-03T01:32:39.054Z,96176.53
2023-08-03T01:32:50.805Z,96168.03
2023-08-03T01:33:02.700Z,96174.53
2023-08-03T01:33:14.509Z,96176.41
2023-08-03T01:33:26.878Z,96166.47
2023-08-03T01:33:38.974Z,96164.88
2023-08-03T01:33:52.285Z,96162.19
2023-08-03T01:34:04.014Z,96174.19
2023-08-03T01:34:16.096Z,96187.63
2023-08-03T01:34:28.940Z,96162.34
2023-08-03T01:34:40.979Z,96173.06
2023-08-03T01:34:52.901Z,96162.66
2023-08-03T01:35:07.235Z,96173.72
2023-08-03T01:35:19.113Z,96171.03
2023-08-03T01:35:31.003Z,96172.94
2023-08-03T01:35:43.870Z,96159.84
2023-08-03T01:35:55.619Z,96167.91
2023-08-03T01:36:07.329Z,96170.56
2023-08-03T01:36:19.436Z,96167.44
2023-08-03T01:36:31.333Z,96177.50
2023-08-03T01:36:43.086Z,96186.34
2023-08-03T01:36:55.237Z,96171.34
2023-08-03T01:37:08.969Z,96166.78
2023-08-03T01:37:20.844Z,96170.25
2023-08-03T01:37:35.119Z,96170.56
2023-08-03T01:37:48.624Z,96172.78
2023-08-03T01:38:00.538Z,96176.25
2023-08-03T01:38:13.898Z,96176.25
2023-08-03T01:38:28.506Z,96172.78
2023-08-03T01:38:40.447Z,96182.88
2023-08-03T01:38:55.855Z,96168.34
2023-08-03T01:39:08.445Z,96171.50
2023-08-03T01:39:21.968Z,96188.41
2023-08-03T01:39:33.699Z,96173.06
2023-08-03T01:39:45.583Z,96178.44
2023-08-03T01:39:57.369Z,96176.88
2023-08-03T01:40:11.919Z,96172.59
2023-08-03T01:40:23.612Z,96164.56
2023-08-03T01:40:35.337Z,96171.50
2023-08-03T01:40:47.313Z,96172.31
2023-08-03T01:41:01.285Z,96175.75
2023-08-03T01:41:13.138Z,96173.06
2023-08-03T01:41:24.971Z,96173.88
2023-08-03T01:41:37.330Z,96167.69
2023-08-03T01:41:49.013Z,96173.88
2023-08-03T01:42:00.762Z,96180.03
2023-08-03T01:42:12.424Z,96174.66
2023-08-03T01:42:24.337Z,96169.28
2023-08-03T01:42:35.986Z,96171.97
2023-08-03T01:42:48.952Z,96175.13
2023-08-03T01:43:00.654Z,96172.09
2023-08-03T01:43:12.490Z,96178.28
2023-08-03T01:43:24.286Z,96172.91
2023-08-03T01:43:36.230Z,96176.38
2023-08-03T01:43:48.021Z,96164.84
2023-08-03T01:44:19.532Z,96173.38
2023-08-03T01:44:31.606Z,96168.00
2023-08-03T01:44:44.498Z,96171.47
2023-08-03T01:44:56.239Z,96175.72
2023-08-03T01:45:08.607Z,96180.78
2023-08-03T01:45:20.858Z,96181.09
2023-08-03T01:45:32.614Z,96185.69
2023-08-03T01:45:44.321Z,96186.78
2023-08-03T01:45:56.114Z,96180.97
2023-08-03T01:46:07.961Z,96191.22
2023-08-03T01:46:20.000Z,96168.16
2023-08-03T01:46:31.955Z,96168.81
2023-08-03T01:46:43.698Z,96171.50
2023-08-03T01:46:57.839Z,96171.19
2023-08-03T01:47:11.071Z,96181.59
2023-08-03T01:47:22.752Z,96173.22
2023-08-03T01:47:34.690Z,96183.19
2023-08-03T01:47:46.638Z,96172.44
2023-08-03T01:47:58.430Z,96176.22
2023-08-03T01:48:10.226Z,96181.59
2023-08-03T01:48:22.011Z,96179.56
2023-08-03T01:48:33.741Z,96176.88
2023-08-03T01:48:46.457Z,96173.72
2023-08-03T01:48:58.319Z,96164.09
2023-08-03T01:49:10.273Z,96171.84
2023-08-03T01:49:23.104Z,96176.41
2023-08-03T01:49:35.278Z,96176.88
2023-08-03T01:49:46.934Z,96180.66
2023-08-03T01:49:58.675Z,96177.66
2023-08-03T01:50:10.420Z,96169.28
2023-08-03T01:50:22.224Z,96172.31
2023-08-03T01:50:34.929Z,96175.75
2023-08-03T01:50:46.696Z,96173.06
2023-08-03T01:50:58.460Z,96160.78
2023-08-03T01:51:10.165Z,96159.19
2023-08-03T01:51:21.985Z,96161.88
2023-08-03T01:51:33.695Z,96173.06
2023-08-03T01:51:45.726Z,96187.63
2023-08-03T01:51:57.908Z,96197.56
2023-08-03T01:52:09.730Z,96171.03
2023-08-03T01:52:22.474Z,96181.78
2023-08-03T01:52:34.131Z,96172.13
2023-08-03T01:52:45.960Z,96190.44
2023-08-03T01:52:58.962Z,96178.94
2023-08-03T01:53:10.768Z,96187.31
2023-08-03T01:53:22.520Z,96181.94
2023-08-03T01:53:34.224Z,96185.09
2023-08-03T01:53:45.887Z,96184.00
2023-08-03T01:53:57.904Z,96185.09
2023-08-03T01:54:10.857Z,96190.44
2023-08-03T01:54:23.664Z,96185.88
2023-08-03T01:54:35.314Z,96186.69
2023-08-03T01:54:47.269Z,96176.72
2023-08-03T01:54:59.046Z,96168.66
2023-08-03T01:55:10.894Z,96173.72
2023-08-03T01:55:22.765Z,96169.16
2023-08-03T01:55:34.459Z,96177.97
2023-08-03T01:55:46.851Z,96183.66
2023-08-03T01:55:58.780Z,96174.81
2023-08-03T01:56:11.397Z,96174.81
2023-08-03T01:56:23.151Z,96180.50
2023-08-03T01:56:35.121Z,96185.09
2023-08-03T01:56:47.160Z,96174.81
2023-08-03T01:56:58.900Z,96180.19
2023-08-03T01:57:10.803Z,96182.41
2023-08-03T01:57:22.652Z,96185.88
2023-08-03T01:57:34.372Z,96186.69
2023-08-03T01:57:46.008Z,96196.63
2023-08-03T01:57:58.877Z,96189.34
2023-08-03T01:58:12.778Z,96189.03
2023-08-03T01:58:24.670Z,96181.31
2023-08-03T01:58:36.369Z,96185.09
2023-08-03T01:58:48.043Z,96179.09
2023-08-03T01:58:59.745Z,96178.31
2023-08-03T01:59:11.818Z,96175.28
2023-08-03T01:59:23.758Z,96182.25
2023-08-03T01:59:35.534Z,96183.81
2023-08-03T01:59:48.214Z,96176.41
2023-08-03T02:00:00.004Z,96171.50
2023-08-03T02:00:12.975Z,96167.25
2023-08-03T02:00:25.348Z,96169.16
2023-08-03T02:00:36.983Z,96178.31
2023-08-03T02:00:50.192Z,96179.09
2023-08-03T02:01:02.143Z,96179.09
2023-08-03T02:01:13.873Z,96167.91
2023-08-03T02:01:25.605Z,96177.97
2023-08-03T02:01:38.335Z,96169.16
2023-08-03T02:01:50.245Z,96163.47
2023-08-03T02:02:02.019Z,96169.91
2023-08-03T02:02:14.117Z,96174.19
2023-08-03T02:02:25.940Z,96176.09
2023-08-03T02:02:37.737Z,96175.75
2023-08-03T02:02:49.877Z,96176.09
2023-08-03T02:03:01.649Z,96166.16
2023-08-03T02:03:14.493Z,96180.34
2023-08-03T02:03:26.125Z,96176.88
2023-08-03T02:03:37.841Z,96174.34
2023-08-03T02:03:49.640Z,96184.47
2023-08-03T02:04:01.596Z,96172.59
2023-08-03T02:04:15.426Z,96162.19
2023-08-03T02:04:27.591Z,96169.44
2023-08-03T02:04:39.396Z,96172.94
2023-08-03T02:04:51.186Z,96181.31
2023-08-03T02:05:03.914Z,96170.56
2023-08-03T02:05:15.982Z,96165.22
2023-08-03T02:05:27.735Z,96167.56
2023-08-03T02:05:39.505Z,96168.66
2023-08-03T02:05:51.347Z,96171.84
2023-08-03T02:06:03.253Z,96182.25
2023-08-03T02:06:15.254Z,96177.97
2023-08-03T02:06:27.156Z,96167.25
2023-08-03T02:06:40.025Z,96171.03
2023-08-03T02:06:52.873Z,96168.81
2023-08-03T02:07:10.738Z,96177.66
2023-08-03T02:07:41.426Z,96187.63
2023-08-03T02:07:55.461Z,96180.19
2023-08-03T02:08:08.872Z,96195.81
2023-08-03T02:08:20.732Z,96200.41
2023-08-03T02:08:33.425Z,96185.88
2023-08-03T02:08:45.304Z,96181.31
2023-08-03T02:08:57.093Z,96187.44
2023-08-03T02:09:09.798Z,96166.31
2023-08-03T02:09:21.742Z,96164.75
2023-08-03T02:09:33.546Z,96183.19
2023-08-03T02:09:45.401Z,96170.88
2023-08-03T02:09:57.230Z,96169.00
2023-08-03T02:10:10.001Z,96175.16
2023-08-03T02:10:22.779Z,96174.34
2023-08-03T02:10:34.783Z,96177.03
2023-08-03T02:10:46.555Z,96200.41
2023-08-03T02:10:58.386Z,96180.50
2023-08-03T02:11:10.306Z,96162.06
2023-08-03T02:11:23.068Z,96163.16
2023-08-03T02:11:35.324Z,96178.78
2023-08-03T02:11:47.218Z,96179.59
2023-08-03T02:11:59.120Z,96189.53
2023-08-03T02:12:11.049Z,96178.00
2023-08-03T02:12:22.716Z,96178.00
2023-08-03T02:12:34.464Z,96178.00
2023-08-03T02:12:46.183Z,96182.88
2023-08-03T02:12:58.863Z,96169.47
2023-08-03T02:13:10.569Z,96174.84
2023-08-03T02:13:22.299Z,96175.63
2023-08-03T02:13:34.438Z,96170.28
2023-08-03T02:13:46.183Z,96169.47
2023-08-03T02:13:58.143Z,96190.16
2023-08-03T02:14:09.833Z,96163.97
2023-08-03T02:14:21.601Z,96188.59
2023-08-03T02:14:33.448Z,96185.44
2023-08-03T02:14:45.308Z,96173.09
2023-08-03T02:14:57.076Z,96161.75
2023-08-03T02:15:10.242Z,96172.94
2023-08-03T02:15:23.175Z,96177.19
2023-08-03T02:15:35.169Z,96199.31
2023-08-03T02:15:47.384Z,96181.63
2023-08-03T02:16:05.312Z,96167.91
2023-08-03T02:16:25.205Z,96174.84
2023-08-03T02:16:37.657Z,96180.53
2023-08-03T02:16:50.379Z,96184.00
2023-08-03T02:17:02.311Z,96189.22
2023-08-03T02:17:14.135Z,96204.84
2023-08-03T02:17:26.213Z,96181.78
2023-08-03T02:17:38.039Z,96194.41
2023-08-03T02:17:49.876Z,96181.00
2023-08-03T02:18:01.916Z,96178.63
2023-08-03T02:18:13.627Z,96181.31
2023-08-03T02:18:25.456Z,96177.66
2023-08-03T02:18:38.196Z,96175.94
2023-08-03T02:18:51.427Z,96178.63
2023-08-03T02:19:03.111Z,96184.75
2023-08-03T02:19:15.030Z,96186.69
2023-08-03T02:19:26.958Z,96198.19
2023-08-03T02:19:38.861Z,96189.38
2023-08-03T02:19:50.795Z,96180.53
2023-08-03T02:20:02.485Z,96187.44
2023-08-03T02:20:14.908Z,96198.97
2023-08-03T02:20:27.739Z,96205.47
2023-08-03T02:20:39.555Z,96217.75
2023-08-03T02:20:51.313Z,96223.91
2023-08-03T02:21:03.050Z,96191.72
2023-08-03T02:21:14.764Z,96195.19
2023-08-03T02:21:26.427Z,96189.84
2023-08-03T02:21:38.142Z,96189.84
2023-08-03T02:21:49.806Z,96192.50
2023-08-03T02:22:02.451Z,96200.84
2023-08-03T02:22:14.134Z,96186.97
2023-08-03T02:22:25.789Z,96202.28
2023-08-03T02:22:37.588Z,96198.03
2023-08-03T02:22:50.165Z,96266.19
2023-08-03T02:23:02.071Z,96220.13
2023-08-03T02:23:15.068Z,96198.66
2023-08-03T02:23:27.172Z,96197.09
2023-08-03T02:23:38.927Z,96210.50
2023-08-03T02:23:51.728Z,96187.94